sensor_id;sensor_type;location;lat;lon;timestamp;P1;durP1;ratioP1;P2;durP2;ratioP2
69047;SDS011;56119;50.118;8.642;2023-04-25T00:01:14;14.57;;;10.65;;
69047;SDS011;56119;50.118;8.642;2023-04-25T00:03:43;17.05;;;11.05;;
69047;SDS011;56119;50.118;8.642;2023-04-25T00:06:10;17.00;;;11.43;;
69047;SDS011;56119;50.118;8.642;2023-04-25T00:08:36;15.93;;;10.82;;
69047;SDS011;56119;50.118;8.642;2023-04-25T00:11:02;14.88;;;11.48;;
69047;SDS011;56119;50.118;8.642;2023-04-25T00:13:28;14.13;;;10.90;;
69047;SDS011;56119;50.118;8.642;2023-04-25T00:15:54;14.25;;;10.68;;
69047;SDS011;56119;50.118;8.642;2023-04-25T00:18:21;15.10;;;11.63;;
69047;SDS011;56119;50.118;8.642;2023-04-25T00:20:47;14.82;;;10.98;;
69047;SDS011;56119;50.118;8.642;2023-04-25T00:23:14;15.88;;;11.45;;
69047;SDS011;56119;50.118;8.642;2023-04-25T00:25:46;12.27;;;9.48;;
69047;SDS011;56119;50.118;8.642;2023-04-25T00:28:12;13.98;;;10.95;;
69047;SDS011;56119;50.118;8.642;2023-04-25T00:30:38;13.25;;;10.38;;
69047;SDS011;56119;50.118;8.642;2023-04-25T00:33:04;12.25;;;9.23;;
69047;SDS011;56119;50.118;8.642;2023-04-25T00:35:30;15.00;;;9.90;;
69047;SDS011;56119;50.118;8.642;2023-04-25T00:37:57;12.00;;;9.60;;
69047;SDS011;56119;50.118;8.642;2023-04-25T00:40:23;12.40;;;9.32;;
69047;SDS011;56119;50.118;8.642;2023-04-25T00:42:49;10.93;;;8.98;;
69047;SDS011;56119;50.118;8.642;2023-04-25T00:45:15;11.95;;;9.23;;
69047;SDS011;56119;50.118;8.642;2023-04-25T00:47:41;12.35;;;9.07;;
69047;SDS011;56119;50.118;8.642;2023-04-25T00:50:07;12.85;;;7.88;;
69047;SDS011;56119;50.118;8.642;2023-04-25T00:52:33;11.38;;;8.35;;
69047;SDS011;56119;50.118;8.642;2023-04-25T00:55:00;10.95;;;7.97;;
69047;SDS011;56119;50.118;8.642;2023-04-25T00:57:26;13.55;;;8.57;;
69047;SDS011;56119;50.118;8.642;2023-04-25T00:59:53;12.07;;;8.65;;
69047;SDS011;56119;50.118;8.642;2023-04-25T01:02:19;11.90;;;8.98;;
69047;SDS011;56119;50.118;8.642;2023-04-25T01:04:47;11.38;;;9.07;;
69047;SDS011;56119;50.118;8.642;2023-04-25T01:07:13;10.40;;;8.32;;
69047;SDS011;56119;50.118;8.642;2023-04-25T01:09:40;10.93;;;7.85;;
69047;SDS011;56119;50.118;8.642;2023-04-25T01:12:07;10.73;;;8.65;;
69047;SDS011;56119;50.118;8.642;2023-04-25T01:14:33;10.52;;;8.07;;
69047;SDS011;56119;50.118;8.642;2023-04-25T01:16:59;9.50;;;7.45;;
69047;SDS011;56119;50.118;8.642;2023-04-25T01:19:25;8.50;;;7.00;;
69047;SDS011;56119;50.118;8.642;2023-04-25T01:21:51;10.30;;;6.68;;
69047;SDS011;56119;50.118;8.642;2023-04-25T01:24:17;9.02;;;6.55;;
69047;SDS011;56119;50.118;8.642;2023-04-25T01:26:43;8.18;;;6.38;;
69047;SDS011;56119;50.118;8.642;2023-04-25T01:29:14;9.85;;;6.35;;
69047;SDS011;56119;50.118;8.642;2023-04-25T01:31:40;8.50;;;6.50;;
69047;SDS011;56119;50.118;8.642;2023-04-25T01:34:06;10.00;;;6.88;;
69047;SDS011;56119;50.118;8.642;2023-04-25T01:36:32;9.63;;;6.05;;
69047;SDS011;56119;50.118;8.642;2023-04-25T01:38:59;9.50;;;7.00;;
69047;SDS011;56119;50.118;8.642;2023-04-25T01:41:26;8.95;;;6.95;;
69047;SDS011;56119;50.118;8.642;2023-04-25T01:43:52;7.93;;;5.82;;
69047;SDS011;56119;50.118;8.642;2023-04-25T01:46:18;7.45;;;6.25;;
69047;SDS011;56119;50.118;8.642;2023-04-25T01:48:44;7.32;;;6.15;;
69047;SDS011;56119;50.118;8.642;2023-04-25T01:51:10;10.43;;;7.07;;
69047;SDS011;56119;50.118;8.642;2023-04-25T01:53:36;10.20;;;6.68;;
69047;SDS011;56119;50.118;8.642;2023-04-25T01:56:03;8.80;;;6.80;;
69047;SDS011;56119;50.118;8.642;2023-04-25T01:58:29;9.13;;;6.78;;
69047;SDS011;56119;50.118;8.642;2023-04-25T02:00:55;8.45;;;6.57;;
69047;SDS011;56119;50.118;8.642;2023-04-25T02:03:21;8.43;;;7.22;;
69047;SDS011;56119;50.118;8.642;2023-04-25T02:05:47;10.23;;;6.90;;
69047;SDS011;56119;50.118;8.642;2023-04-25T02:08:13;8.32;;;6.55;;
69047;SDS011;56119;50.118;8.642;2023-04-25T02:10:39;10.68;;;7.88;;
69047;SDS011;56119;50.118;8.642;2023-04-25T02:13:05;9.73;;;7.38;;
69047;SDS011;56119;50.118;8.642;2023-04-25T02:15:31;10.48;;;7.20;;
69047;SDS011;56119;50.118;8.642;2023-04-25T02:17:57;8.60;;;7.22;;
69047;SDS011;56119;50.118;8.642;2023-04-25T02:20:25;10.43;;;7.38;;
69047;SDS011;56119;50.118;8.642;2023-04-25T02:22:51;10.05;;;8.05;;
69047;SDS011;56119;50.118;8.642;2023-04-25T02:25:17;10.80;;;8.93;;
69047;SDS011;56119;50.118;8.642;2023-04-25T02:27:44;10.40;;;8.27;;
69047;SDS011;56119;50.118;8.642;2023-04-25T02:30:10;14.38;;;9.18;;
69047;SDS011;56119;50.118;8.642;2023-04-25T02:32:36;11.90;;;8.57;;
69047;SDS011;56119;50.118;8.642;2023-04-25T02:35:02;12.93;;;8.20;;
69047;SDS011;56119;50.118;8.642;2023-04-25T02:37:29;12.13;;;8.00;;
69047;SDS011;56119;50.118;8.642;2023-04-25T02:39:55;12.95;;;9.05;;
69047;SDS011;56119;50.118;8.642;2023-04-25T02:42:21;13.13;;;8.77;;
69047;SDS011;56119;50.118;8.642;2023-04-25T02:44:47;13.23;;;9.32;;
69047;SDS011;56119;50.118;8.642;2023-04-25T02:47:13;12.48;;;9.00;;
69047;SDS011;56119;50.118;8.642;2023-04-25T02:49:39;14.07;;;8.98;;
69047;SDS011;56119;50.118;8.642;2023-04-25T02:52:05;15.57;;;10.60;;
69047;SDS011;56119;50.118;8.642;2023-04-25T02:54:31;12.50;;;9.38;;
69047;SDS011;56119;50.118;8.642;2023-04-25T02:56:57;13.45;;;9.35;;
69047;SDS011;56119;50.118;8.642;2023-04-25T02:59:23;10.60;;;8.65;;
69047;SDS011;56119;50.118;8.642;2023-04-25T03:01:49;12.73;;;9.55;;
69047;SDS011;56119;50.118;8.642;2023-04-25T03:04:15;13.57;;;9.48;;
69047;SDS011;56119;50.118;8.642;2023-04-25T03:06:43;17.77;;;9.85;;
69047;SDS011;56119;50.118;8.642;2023-04-25T03:09:09;15.05;;;10.25;;
69047;SDS011;56119;50.118;8.642;2023-04-25T03:11:36;14.48;;;9.32;;
69047;SDS011;56119;50.118;8.642;2023-04-25T03:14:02;17.02;;;9.10;;
69047;SDS011;56119;50.118;8.642;2023-04-25T03:16:28;15.25;;;8.85;;
69047;SDS011;56119;50.118;8.642;2023-04-25T03:18:54;10.75;;;8.48;;
69047;SDS011;56119;50.118;8.642;2023-04-25T03:21:20;15.35;;;9.27;;
69047;SDS011;56119;50.118;8.642;2023-04-25T03:23:46;12.68;;;8.23;;
69047;SDS011;56119;50.118;8.642;2023-04-25T03:26:12;14.43;;;9.73;;
69047;SDS011;56119;50.118;8.642;2023-04-25T03:28:38;12.88;;;8.57;;
69047;SDS011;56119;50.118;8.642;2023-04-25T03:31:05;13.05;;;9.25;;
69047;SDS011;56119;50.118;8.642;2023-04-25T03:33:31;12.02;;;9.05;;
69047;SDS011;56119;50.118;8.642;2023-04-25T03:35:57;14.38;;;8.00;;
69047;SDS011;56119;50.118;8.642;2023-04-25T03:38:23;15.32;;;8.70;;
69047;SDS011;56119;50.118;8.642;2023-04-25T03:40:49;14.30;;;9.35;;
69047;SDS011;56119;50.118;8.642;2023-04-25T03:43:16;14.48;;;8.98;;
69047;SDS011;56119;50.118;8.642;2023-04-25T03:45:41;13.27;;;8.35;;
69047;SDS011;56119;50.118;8.642;2023-04-25T03:48:07;13.65;;;9.20;;
69047;SDS011;56119;50.118;8.642;2023-04-25T03:50:33;15.70;;;10.02;;
69047;SDS011;56119;50.118;8.642;2023-04-25T03:53:00;16.02;;;9.23;;
69047;SDS011;56119;50.118;8.642;2023-04-25T03:55:26;16.67;;;9.07;;
69047;SDS011;56119;50.118;8.642;2023-04-25T03:57:52;15.13;;;8.95;;
69047;SDS011;56119;50.118;8.642;2023-04-25T04:00:18;9.65;;;7.75;;
69047;SDS011;56119;50.118;8.642;2023-04-25T04:02:44;12.18;;;9.30;;
69047;SDS011;56119;50.118;8.642;2023-04-25T04:05:10;15.55;;;8.93;;
69047;SDS011;56119;50.118;8.642;2023-04-25T04:07:37;15.82;;;8.07;;
69047;SDS011;56119;50.118;8.642;2023-04-25T04:10:14;14.40;;;8.35;;
69047;SDS011;56119;50.118;8.642;2023-04-25T04:12:39;12.18;;;8.38;;
69047;SDS011;56119;50.118;8.642;2023-04-25T04:15:06;13.93;;;8.77;;
69047;SDS011;56119;50.118;8.642;2023-04-25T04:17:32;15.88;;;8.98;;
69047;SDS011;56119;50.118;8.642;2023-04-25T04:19:58;17.15;;;10.50;;
69047;SDS011;56119;50.118;8.642;2023-04-25T04:22:24;15.75;;;9.88;;
69047;SDS011;56119;50.118;8.642;2023-04-25T04:24:50;16.25;;;10.25;;
69047;SDS011;56119;50.118;8.642;2023-04-25T04:27:17;17.67;;;9.98;;
69047;SDS011;56119;50.118;8.642;2023-04-25T04:29:44;17.27;;;10.63;;
69047;SDS011;56119;50.118;8.642;2023-04-25T04:32:10;15.43;;;10.38;;
69047;SDS011;56119;50.118;8.642;2023-04-25T04:34:36;15.95;;;10.00;;
69047;SDS011;56119;50.118;8.642;2023-04-25T04:37:04;14.73;;;8.38;;
69047;SDS011;56119;50.118;8.642;2023-04-25T04:39:31;11.57;;;8.50;;
69047;SDS011;56119;50.118;8.642;2023-04-25T04:41:57;16.00;;;8.50;;
69047;SDS011;56119;50.118;8.642;2023-04-25T04:44:24;16.25;;;8.43;;
69047;SDS011;56119;50.118;8.642;2023-04-25T04:46:50;12.70;;;7.65;;
69047;SDS011;56119;50.118;8.642;2023-04-25T04:49:16;14.38;;;7.70;;
69047;SDS011;56119;50.118;8.642;2023-04-25T04:51:42;18.10;;;7.75;;
69047;SDS011;56119;50.118;8.642;2023-04-25T04:54:12;14.05;;;8.05;;
69047;SDS011;56119;50.118;8.642;2023-04-25T04:56:38;16.88;;;8.45;;
69047;SDS011;56119;50.118;8.642;2023-04-25T04:59:04;14.73;;;8.10;;
69047;SDS011;56119;50.118;8.642;2023-04-25T05:01:30;16.83;;;8.40;;
69047;SDS011;56119;50.118;8.642;2023-04-25T05:03:56;20.75;;;9.60;;
69047;SDS011;56119;50.118;8.642;2023-04-25T05:06:25;21.77;;;10.10;;
69047;SDS011;56119;50.118;8.642;2023-04-25T05:08:51;17.42;;;8.82;;
69047;SDS011;56119;50.118;8.642;2023-04-25T05:11:17;17.10;;;9.05;;
69047;SDS011;56119;50.118;8.642;2023-04-25T05:13:43;18.42;;;9.45;;
69047;SDS011;56119;50.118;8.642;2023-04-25T05:16:10;20.52;;;9.32;;
69047;SDS011;56119;50.118;8.642;2023-04-25T05:18:36;16.02;;;9.40;;
69047;SDS011;56119;50.118;8.642;2023-04-25T05:21:02;16.15;;;8.50;;
69047;SDS011;56119;50.118;8.642;2023-04-25T05:23:28;17.45;;;8.73;;
69047;SDS011;56119;50.118;8.642;2023-04-25T05:25:55;20.80;;;9.90;;
69047;SDS011;56119;50.118;8.642;2023-04-25T05:28:21;18.13;;;10.88;;
69047;SDS011;56119;50.118;8.642;2023-04-25T05:30:47;19.63;;;8.48;;
69047;SDS011;56119;50.118;8.642;2023-04-25T05:33:13;15.18;;;8.77;;
69047;SDS011;56119;50.118;8.642;2023-04-25T05:35:40;13.90;;;8.38;;
69047;SDS011;56119;50.118;8.642;2023-04-25T05:38:06;19.90;;;9.13;;
69047;SDS011;56119;50.118;8.642;2023-04-25T05:40:32;13.48;;;8.50;;
69047;SDS011;56119;50.118;8.642;2023-04-25T05:42:58;13.43;;;8.13;;
69047;SDS011;56119;50.118;8.642;2023-04-25T05:45:24;16.08;;;8.95;;
69047;SDS011;56119;50.118;8.642;2023-04-25T05:47:50;18.90;;;9.63;;
69047;SDS011;56119;50.118;8.642;2023-04-25T05:50:16;19.77;;;8.32;;
69047;SDS011;56119;50.118;8.642;2023-04-25T05:52:42;17.92;;;8.77;;
69047;SDS011;56119;50.118;8.642;2023-04-25T05:55:08;15.07;;;8.43;;
69047;SDS011;56119;50.118;8.642;2023-04-25T05:57:34;12.82;;;8.07;;
69047;SDS011;56119;50.118;8.642;2023-04-25T06:00:00;13.15;;;8.52;;
69047;SDS011;56119;50.118;8.642;2023-04-25T06:02:26;13.13;;;6.63;;
69047;SDS011;56119;50.118;8.642;2023-04-25T06:04:52;13.60;;;6.47;;
69047;SDS011;56119;50.118;8.642;2023-04-25T06:07:19;13.32;;;7.25;;
69047;SDS011;56119;50.118;8.642;2023-04-25T06:09:45;13.20;;;7.05;;
69047;SDS011;56119;50.118;8.642;2023-04-25T06:12:11;15.48;;;7.78;;
69047;SDS011;56119;50.118;8.642;2023-04-25T06:14:37;10.80;;;6.28;;
69047;SDS011;56119;50.118;8.642;2023-04-25T06:17:03;14.32;;;8.90;;
69047;SDS011;56119;50.118;8.642;2023-04-25T06:19:33;16.77;;;8.63;;
69047;SDS011;56119;50.118;8.642;2023-04-25T06:21:59;7.63;;;5.15;;
69047;SDS011;56119;50.118;8.642;2023-04-25T06:24:25;11.02;;;4.72;;
69047;SDS011;56119;50.118;8.642;2023-04-25T06:26:51;6.32;;;4.05;;
69047;SDS011;56119;50.118;8.642;2023-04-25T06:29:18;8.20;;;4.85;;
69047;SDS011;56119;50.118;8.642;2023-04-25T06:31:44;6.07;;;4.07;;
69047;SDS011;56119;50.118;8.642;2023-04-25T06:34:10;8.52;;;5.05;;
69047;SDS011;56119;50.118;8.642;2023-04-25T06:36:36;5.63;;;3.83;;
69047;SDS011;56119;50.118;8.642;2023-04-25T06:39:02;7.53;;;4.18;;
69047;SDS011;56119;50.118;8.642;2023-04-25T06:41:28;6.72;;;3.92;;
69047;SDS011;56119;50.118;8.642;2023-04-25T06:43:54;8.43;;;4.63;;
69047;SDS011;56119;50.118;8.642;2023-04-25T06:46:19;9.25;;;4.35;;
69047;SDS011;56119;50.118;8.642;2023-04-25T06:48:46;7.32;;;4.90;;
69047;SDS011;56119;50.118;8.642;2023-04-25T06:51:12;8.20;;;4.18;;
69047;SDS011;56119;50.118;8.642;2023-04-25T06:53:38;6.55;;;3.80;;
69047;SDS011;56119;50.118;8.642;2023-04-25T06:56:04;7.78;;;3.38;;
69047;SDS011;56119;50.118;8.642;2023-04-25T06:58:30;7.38;;;3.28;;
69047;SDS011;56119;50.118;8.642;2023-04-25T07:00:56;4.50;;;3.15;;
69047;SDS011;56119;50.118;8.642;2023-04-25T07:03:22;5.63;;;3.10;;
69047;SDS011;56119;50.118;8.642;2023-04-25T07:05:49;6.68;;;3.15;;
69047;SDS011;56119;50.118;8.642;2023-04-25T07:08:15;9.90;;;4.63;;
69047;SDS011;56119;50.118;8.642;2023-04-25T07:10:41;9.95;;;6.45;;
69047;SDS011;56119;50.118;8.642;2023-04-25T07:13:07;13.10;;;7.95;;
69047;SDS011;56119;50.118;8.642;2023-04-25T07:15:33;12.52;;;7.00;;
69047;SDS011;56119;50.118;8.642;2023-04-25T07:17:59;13.77;;;7.53;;
69047;SDS011;56119;50.118;8.642;2023-04-25T07:20:25;12.27;;;6.75;;
69047;SDS011;56119;50.118;8.642;2023-04-25T07:22:52;14.23;;;7.07;;
69047;SDS011;56119;50.118;8.642;2023-04-25T07:25:19;12.77;;;7.43;;
69047;SDS011;56119;50.118;8.642;2023-04-25T07:27:45;16.50;;;7.97;;
69047;SDS011;56119;50.118;8.642;2023-04-25T07:30:11;14.98;;;6.90;;
69047;SDS011;56119;50.118;8.642;2023-04-25T07:32:37;13.02;;;6.40;;
69047;SDS011;56119;50.118;8.642;2023-04-25T07:35:03;11.93;;;6.70;;
69047;SDS011;56119;50.118;8.642;2023-04-25T07:37:29;11.45;;;6.68;;
69047;SDS011;56119;50.118;8.642;2023-04-25T07:39:55;11.43;;;6.75;;
69047;SDS011;56119;50.118;8.642;2023-04-25T07:42:21;10.95;;;6.30;;
69047;SDS011;56119;50.118;8.642;2023-04-25T07:44:47;11.13;;;6.18;;
69047;SDS011;56119;50.118;8.642;2023-04-25T07:47:13;15.52;;;5.97;;
69047;SDS011;56119;50.118;8.642;2023-04-25T07:49:39;10.27;;;6.32;;
69047;SDS011;56119;50.118;8.642;2023-04-25T07:52:05;15.50;;;6.90;;
69047;SDS011;56119;50.118;8.642;2023-04-25T07:54:31;9.60;;;5.65;;
69047;SDS011;56119;50.118;8.642;2023-04-25T07:56:57;13.27;;;5.78;;
69047;SDS011;56119;50.118;8.642;2023-04-25T07:59:23;9.18;;;4.90;;
69047;SDS011;56119;50.118;8.642;2023-04-25T08:01:50;8.40;;;5.32;;
69047;SDS011;56119;50.118;8.642;2023-04-25T08:04:16;14.27;;;5.25;;
69047;SDS011;56119;50.118;8.642;2023-04-25T08:06:42;11.02;;;5.00;;
69047;SDS011;56119;50.118;8.642;2023-04-25T08:09:08;12.30;;;5.97;;
69047;SDS011;56119;50.118;8.642;2023-04-25T08:11:34;10.27;;;5.05;;
69047;SDS011;56119;50.118;8.642;2023-04-25T08:14:00;8.77;;;4.82;;
69047;SDS011;56119;50.118;8.642;2023-04-25T08:16:26;11.52;;;5.28;;
69047;SDS011;56119;50.118;8.642;2023-04-25T08:18:52;7.57;;;4.20;;
69047;SDS011;56119;50.118;8.642;2023-04-25T08:21:18;10.32;;;4.35;;
69047;SDS011;56119;50.118;8.642;2023-04-25T08:23:45;5.65;;;4.28;;
69047;SDS011;56119;50.118;8.642;2023-04-25T08:26:11;7.07;;;3.65;;
69047;SDS011;56119;50.118;8.642;2023-04-25T08:28:37;8.85;;;3.88;;
69047;SDS011;56119;50.118;8.642;2023-04-25T08:31:03;6.97;;;3.85;;
69047;SDS011;56119;50.118;8.642;2023-04-25T08:33:29;7.05;;;3.80;;
69047;SDS011;56119;50.118;8.642;2023-04-25T08:35:57;8.55;;;3.58;;
69047;SDS011;56119;50.118;8.642;2023-04-25T08:38:23;6.75;;;3.97;;
69047;SDS011;56119;50.118;8.642;2023-04-25T08:40:49;8.65;;;3.80;;
69047;SDS011;56119;50.118;8.642;2023-04-25T08:43:17;7.50;;;3.58;;
69047;SDS011;56119;50.118;8.642;2023-04-25T08:45:43;7.70;;;3.33;;
69047;SDS011;56119;50.118;8.642;2023-04-25T08:48:12;7.78;;;3.90;;
69047;SDS011;56119;50.118;8.642;2023-04-25T08:50:43;7.82;;;4.30;;
69047;SDS011;56119;50.118;8.642;2023-04-25T08:53:11;5.53;;;4.32;;
69047;SDS011;56119;50.118;8.642;2023-04-25T08:55:42;9.73;;;4.65;;
69047;SDS011;56119;50.118;8.642;2023-04-25T08:58:09;6.90;;;3.72;;
69047;SDS011;56119;50.118;8.642;2023-04-25T09:00:36;10.65;;;4.97;;
69047;SDS011;56119;50.118;8.642;2023-04-25T09:03:02;8.45;;;4.18;;
69047;SDS011;56119;50.118;8.642;2023-04-25T09:05:28;8.73;;;4.35;;
69047;SDS011;56119;50.118;8.642;2023-04-25T09:07:55;8.50;;;4.40;;
69047;SDS011;56119;50.118;8.642;2023-04-25T09:10:21;6.20;;;4.45;;
69047;SDS011;56119;50.118;8.642;2023-04-25T09:15:33;5.75;;;4.28;;
69047;SDS011;56119;50.118;8.642;2023-04-25T09:18:12;8.75;;;4.80;;
69047;SDS011;56119;50.118;8.642;2023-04-25T09:20:41;6.38;;;4.60;;
69047;SDS011;56119;50.118;8.642;2023-04-25T09:23:08;7.78;;;4.80;;
69047;SDS011;56119;50.118;8.642;2023-04-25T09:25:35;10.10;;;5.18;;
69047;SDS011;56119;50.118;8.642;2023-04-25T09:28:04;6.95;;;4.60;;
69047;SDS011;56119;50.118;8.642;2023-04-25T09:30:34;8.52;;;4.97;;
69047;SDS011;56119;50.118;8.642;2023-04-25T09:33:07;9.25;;;5.10;;
69047;SDS011;56119;50.118;8.642;2023-04-25T09:35:37;6.88;;;4.85;;
69047;SDS011;56119;50.118;8.642;2023-04-25T09:38:07;6.18;;;5.00;;
69047;SDS011;56119;50.118;8.642;2023-04-25T09:40:33;13.13;;;7.45;;
69047;SDS011;56119;50.118;8.642;2023-04-25T09:42:58;14.45;;;8.40;;
69047;SDS011;56119;50.118;8.642;2023-04-25T09:45:25;10.73;;;5.32;;
69047;SDS011;56119;50.118;8.642;2023-04-25T09:47:55;9.27;;;4.70;;
69047;SDS011;56119;50.118;8.642;2023-04-25T09:50:22;6.85;;;4.40;;
69047;SDS011;56119;50.118;8.642;2023-04-25T09:53:02;6.63;;;5.28;;
69047;SDS011;56119;50.118;8.642;2023-04-25T09:55:29;8.18;;;4.10;;
69047;SDS011;56119;50.118;8.642;2023-04-25T09:57:55;6.68;;;4.47;;
69047;SDS011;56119;50.118;8.642;2023-04-25T10:00:24;7.28;;;4.57;;
69047;SDS011;56119;50.118;8.642;2023-04-25T10:02:50;8.55;;;4.38;;
69047;SDS011;56119;50.118;8.642;2023-04-25T10:05:17;7.28;;;4.20;;
69047;SDS011;56119;50.118;8.642;2023-04-25T10:07:43;9.40;;;4.07;;
69047;SDS011;56119;50.118;8.642;2023-04-25T10:10:09;6.15;;;4.13;;
69047;SDS011;56119;50.118;8.642;2023-04-25T10:12:38;7.68;;;4.88;;
69047;SDS011;56119;50.118;8.642;2023-04-25T10:15:05;7.03;;;4.05;;
69047;SDS011;56119;50.118;8.642;2023-04-25T10:17:32;6.85;;;3.60;;
69047;SDS011;56119;50.118;8.642;2023-04-25T10:20:00;8.50;;;4.60;;
69047;SDS011;56119;50.118;8.642;2023-04-25T10:24:57;8.38;;;4.93;;
69047;SDS011;56119;50.118;8.642;2023-04-25T10:27:24;8.13;;;4.93;;
69047;SDS011;56119;50.118;8.642;2023-04-25T10:30:09;7.30;;;4.10;;
69047;SDS011;56119;50.118;8.642;2023-04-25T10:32:39;7.80;;;4.80;;
69047;SDS011;56119;50.118;8.642;2023-04-25T10:35:12;6.07;;;4.32;;
69047;SDS011;56119;50.118;8.642;2023-04-25T10:37:38;8.48;;;5.10;;
69047;SDS011;56119;50.118;8.642;2023-04-25T10:40:08;6.60;;;5.40;;
69047;SDS011;56119;50.118;8.642;2023-04-25T10:42:34;8.38;;;5.45;;
69047;SDS011;56119;50.118;8.642;2023-04-25T10:45:04;8.98;;;4.72;;
69047;SDS011;56119;50.118;8.642;2023-04-25T10:47:34;8.57;;;5.43;;
69047;SDS011;56119;50.118;8.642;2023-04-25T10:50:05;10.25;;;5.30;;
69047;SDS011;56119;50.118;8.642;2023-04-25T10:52:32;8.32;;;5.78;;
69047;SDS011;56119;50.118;8.642;2023-04-25T10:54:58;7.90;;;4.90;;
69047;SDS011;56119;50.118;8.642;2023-04-25T10:59:59;7.45;;;5.13;;
69047;SDS011;56119;50.118;8.642;2023-04-25T11:02:26;6.85;;;4.22;;
69047;SDS011;56119;50.118;8.642;2023-04-25T11:04:53;8.73;;;4.63;;
69047;SDS011;56119;50.118;8.642;2023-04-25T11:07:39;7.30;;;5.18;;
69047;SDS011;56119;50.118;8.642;2023-04-25T11:10:09;6.68;;;4.28;;
69047;SDS011;56119;50.118;8.642;2023-04-25T11:12:35;6.85;;;4.35;;
69047;SDS011;56119;50.118;8.642;2023-04-25T11:15:05;7.97;;;4.55;;
69047;SDS011;56119;50.118;8.642;2023-04-25T11:17:32;6.68;;;4.05;;
69047;SDS011;56119;50.118;8.642;2023-04-25T11:19:58;6.30;;;4.05;;
69047;SDS011;56119;50.118;8.642;2023-04-25T11:22:26;7.60;;;4.47;;
69047;SDS011;56119;50.118;8.642;2023-04-25T11:24:52;7.32;;;3.90;;
69047;SDS011;56119;50.118;8.642;2023-04-25T11:27:18;7.15;;;4.43;;
69047;SDS011;56119;50.118;8.642;2023-04-25T11:29:44;8.98;;;3.92;;
69047;SDS011;56119;50.118;8.642;2023-04-25T11:32:13;10.23;;;4.05;;
69047;SDS011;56119;50.118;8.642;2023-04-25T11:34:39;7.40;;;4.43;;
69047;SDS011;56119;50.118;8.642;2023-04-25T11:37:08;7.85;;;4.28;;
69047;SDS011;56119;50.118;8.642;2023-04-25T11:39:36;8.48;;;4.80;;
69047;SDS011;56119;50.118;8.642;2023-04-25T11:42:03;9.23;;;3.63;;
69047;SDS011;56119;50.118;8.642;2023-04-25T11:44:30;5.97;;;3.28;;
69047;SDS011;56119;50.118;8.642;2023-04-25T11:46:56;7.70;;;3.75;;
69047;SDS011;56119;50.118;8.642;2023-04-25T11:49:23;8.38;;;3.88;;
69047;SDS011;56119;50.118;8.642;2023-04-25T11:51:49;6.40;;;3.42;;
69047;SDS011;56119;50.118;8.642;2023-04-25T11:54:16;7.10;;;3.60;;
69047;SDS011;56119;50.118;8.642;2023-04-25T11:56:45;6.88;;;3.67;;
69047;SDS011;56119;50.118;8.642;2023-04-25T11:59:11;9.00;;;3.17;;
69047;SDS011;56119;50.118;8.642;2023-04-25T12:01:39;5.82;;;3.40;;
69047;SDS011;56119;50.118;8.642;2023-04-25T12:04:12;7.75;;;4.25;;
69047;SDS011;56119;50.118;8.642;2023-04-25T12:06:39;8.57;;;4.32;;
69047;SDS011;56119;50.118;8.642;2023-04-25T12:09:07;9.68;;;3.90;;
69047;SDS011;56119;50.118;8.642;2023-04-25T12:11:40;8.88;;;3.55;;
69047;SDS011;56119;50.118;8.642;2023-04-25T12:14:06;7.55;;;3.92;;
69047;SDS011;56119;50.118;8.642;2023-04-25T12:16:44;7.70;;;4.13;;
69047;SDS011;56119;50.118;8.642;2023-04-25T12:19:14;7.05;;;3.60;;
69047;SDS011;56119;50.118;8.642;2023-04-25T12:21:40;7.03;;;3.58;;
69047;SDS011;56119;50.118;8.642;2023-04-25T12:24:14;8.50;;;3.90;;
69047;SDS011;56119;50.118;8.642;2023-04-25T12:26:47;9.25;;;4.82;;
69047;SDS011;56119;50.118;8.642;2023-04-25T12:29:20;11.85;;;4.00;;
69047;SDS011;56119;50.118;8.642;2023-04-25T12:31:46;6.53;;;3.63;;
69047;SDS011;56119;50.118;8.642;2023-04-25T12:34:12;7.45;;;3.83;;
69047;SDS011;56119;50.118;8.642;2023-04-25T12:36:38;7.28;;;4.15;;
69047;SDS011;56119;50.118;8.642;2023-04-25T12:39:04;11.07;;;3.83;;
69047;SDS011;56119;50.118;8.642;2023-04-25T12:41:31;6.28;;;3.75;;
69047;SDS011;56119;50.118;8.642;2023-04-25T12:43:57;7.53;;;3.75;;
69047;SDS011;56119;50.118;8.642;2023-04-25T12:46:23;6.82;;;4.35;;
69047;SDS011;56119;50.118;8.642;2023-04-25T12:48:50;7.28;;;4.10;;
69047;SDS011;56119;50.118;8.642;2023-04-25T12:51:16;7.05;;;3.63;;
69047;SDS011;56119;50.118;8.642;2023-04-25T12:53:42;8.48;;;3.45;;
69047;SDS011;56119;50.118;8.642;2023-04-25T12:56:08;12.05;;;3.60;;
69047;SDS011;56119;50.118;8.642;2023-04-25T12:58:34;6.82;;;3.58;;
69047;SDS011;56119;50.118;8.642;2023-04-25T13:01:00;8.93;;;3.83;;
69047;SDS011;56119;50.118;8.642;2023-04-25T13:03:26;8.38;;;3.53;;
69047;SDS011;56119;50.118;8.642;2023-04-25T13:05:52;5.18;;;3.03;;
69047;SDS011;56119;50.118;8.642;2023-04-25T13:08:18;8.00;;;3.53;;
69047;SDS011;56119;50.118;8.642;2023-04-25T13:10:44;9.57;;;3.75;;
69047;SDS011;56119;50.118;8.642;2023-04-25T13:13:10;6.82;;;3.40;;
69047;SDS011;56119;50.118;8.642;2023-04-25T13:15:36;8.48;;;3.28;;
69047;SDS011;56119;50.118;8.642;2023-04-25T13:18:03;8.00;;;3.90;;
69047;SDS011;56119;50.118;8.642;2023-04-25T13:20:30;9.45;;;3.75;;
69047;SDS011;56119;50.118;8.642;2023-04-25T13:22:56;9.40;;;4.88;;
69047;SDS011;56119;50.118;8.642;2023-04-25T13:25:22;9.18;;;4.13;;
69047;SDS011;56119;50.118;8.642;2023-04-25T13:27:48;5.88;;;3.55;;
69047;SDS011;56119;50.118;8.642;2023-04-25T13:30:14;7.95;;;4.00;;
69047;SDS011;56119;50.118;8.642;2023-04-25T13:32:41;8.00;;;4.00;;
69047;SDS011;56119;50.118;8.642;2023-04-25T13:35:08;8.25;;;4.32;;
69047;SDS011;56119;50.118;8.642;2023-04-25T13:37:34;6.22;;;3.53;;
69047;SDS011;56119;50.118;8.642;2023-04-25T13:40:01;7.63;;;4.47;;
69047;SDS011;56119;50.118;8.642;2023-04-25T13:42:29;8.82;;;4.78;;
69047;SDS011;56119;50.118;8.642;2023-04-25T13:44:55;8.80;;;3.88;;
69047;SDS011;56119;50.118;8.642;2023-04-25T13:47:21;7.95;;;4.10;;
69047;SDS011;56119;50.118;8.642;2023-04-25T13:49:48;7.38;;;4.35;;
69047;SDS011;56119;50.118;8.642;2023-04-25T13:52:14;9.13;;;4.32;;
69047;SDS011;56119;50.118;8.642;2023-04-25T13:54:40;11.45;;;4.40;;
69047;SDS011;56119;50.118;8.642;2023-04-25T13:57:06;9.10;;;3.78;;
69047;SDS011;56119;50.118;8.642;2023-04-25T13:59:32;8.25;;;3.75;;
69047;SDS011;56119;50.118;8.642;2023-04-25T14:01:58;7.63;;;3.58;;
69047;SDS011;56119;50.118;8.642;2023-04-25T14:04:24;6.30;;;3.65;;
69047;SDS011;56119;50.118;8.642;2023-04-25T14:06:51;11.07;;;4.15;;
69047;SDS011;56119;50.118;8.642;2023-04-25T14:09:17;8.30;;;3.17;;
69047;SDS011;56119;50.118;8.642;2023-04-25T14:11:43;8.55;;;3.33;;
69047;SDS011;56119;50.118;8.642;2023-04-25T14:14:09;5.55;;;3.10;;
69047;SDS011;56119;50.118;8.642;2023-04-25T14:16:36;9.45;;;3.40;;
69047;SDS011;56119;50.118;8.642;2023-04-25T14:19:02;5.50;;;3.40;;
69047;SDS011;56119;50.118;8.642;2023-04-25T14:21:28;8.20;;;3.38;;
69047;SDS011;56119;50.118;8.642;2023-04-25T14:23:57;6.50;;;2.90;;
69047;SDS011;56119;50.118;8.642;2023-04-25T14:26:23;6.55;;;3.08;;
69047;SDS011;56119;50.118;8.642;2023-04-25T14:28:49;7.38;;;3.60;;
69047;SDS011;56119;50.118;8.642;2023-04-25T14:31:15;5.22;;;2.95;;
69047;SDS011;56119;50.118;8.642;2023-04-25T14:33:41;4.82;;;2.63;;
69047;SDS011;56119;50.118;8.642;2023-04-25T14:36:08;7.53;;;2.65;;
69047;SDS011;56119;50.118;8.642;2023-04-25T14:38:34;7.93;;;2.72;;
69047;SDS011;56119;50.118;8.642;2023-04-25T14:41:00;5.35;;;2.70;;
69047;SDS011;56119;50.118;8.642;2023-04-25T14:43:26;5.90;;;2.60;;
69047;SDS011;56119;50.118;8.642;2023-04-25T14:45:52;5.63;;;2.80;;